PWSweather.com
Personal Weather Stations
Station Observations

SkegnessGB

Lat: 53.147585, Lon: 0.345774

Elevation: 18

Station Type: Fine Offset WH3080

http://www.skegnessweather.info/

Latest ConditionsUpdated 7:50:00 AM GMT Monday, Jun 17, 2019
Currently Today's Max Today's Min Today's Average
Temperature 59.7°F15.4°C 59.7°F15.4°C 54.7°F12.6°C 56.0°F13.3°C
Dew Point 51.4°F10.8°C 51.4°F10.8°C 49.0°F9.4°C 50.1°F10.1°C
Winds 18.1 mph SE29.1 kmh SE 20.1 mph -32.3 kmh - - 14.1 mph 22.7 kmh
Wind Gusts 20.9 mph33.6 kmh 20.9 mph33.6 kmh - -
Humidity 74% 84% 74% 81%
Pressure 30.00 in1015.9 mb 30.00 in1015.9 mb 29.98 in1015.2 mb -
Hour Temp Dew Point Humidity Winds Wind Gusts Pressure Precip Precip Rate Daily Precip Total
07:50 AM 59.7°F15.4°C 51.4°F10.8°C 74% 18.1 mph SE29.1 kmh SE 20.9 mph33.6 kmh 30.00 in1015.9 mb 0.00 in0.0 mm 0.00 in0.0 mm 0.00 in0.0 mm
07:40 AM 59.4°F15.2°C 51.4°F10.8°C 75% 17.5 mph SE28.2 kmh SE 20.2 mph32.5 kmh 30.00 in1015.9 mb 0.00 in0.0 mm 0.00 in0.0 mm 0.00 in0.0 mm
07:30 AM 59.0°F15.0°C 51.1°F10.6°C 75% 20.0 mph SSE32.2 kmh SSE 20.2 mph32.5 kmh 30.00 in1015.9 mb 0.00 in0.0 mm 0.00 in0.0 mm 0.00 in0.0 mm
07:20 AM 58.6°F14.8°C 50.7°F10.4°C 75% 15.4 mph S24.8 kmh S 17.5 mph28.2 kmh 30.00 in1015.9 mb 0.00 in0.0 mm 0.00 in0.0 mm 0.00 in0.0 mm
07:10 AM 58.3°F14.6°C 50.7°F10.4°C 76% 15.8 mph S25.4 kmh S 16.0 mph25.7 kmh 30.00 in1015.9 mb 0.00 in0.0 mm 0.00 in0.0 mm 0.00 in0.0 mm
07:00 AM 57.9°F14.4°C 50.8°F10.4°C 77% 17.2 mph S27.7 kmh S 17.5 mph28.2 kmh 30.00 in1015.9 mb 0.00 in0.0 mm 0.00 in0.0 mm 0.00 in0.0 mm
06:50 AM 57.6°F14.2°C 51.4°F10.8°C 80% 13.7 mph S22.0 kmh S 12.5 mph20.1 kmh 30.00 in1015.9 mb 0.00 in0.0 mm 0.00 in0.0 mm 0.00 in0.0 mm
06:40 AM 57.2°F14.0°C 51.1°F10.6°C 80% 15.2 mph SSE24.5 kmh SSE 16.7 mph26.9 kmh 30.00 in1015.9 mb 0.00 in0.0 mm 0.00 in0.0 mm 0.00 in0.0 mm
06:30 AM 56.7°F13.7°C 50.6°F10.3°C 80% 20.1 mph SSE32.3 kmh SSE 18.5 mph29.8 kmh 30.00 in1015.9 mb 0.00 in0.0 mm 0.00 in0.0 mm 0.00 in0.0 mm
06:20 AM 56.7°F13.7°C 50.6°F10.3°C 80% 17.9 mph SSE28.8 kmh SSE 17.5 mph28.2 kmh 29.99 in1015.6 mb 0.00 in0.0 mm 0.00 in0.0 mm 0.00 in0.0 mm
06:10 AM 56.3°F13.5°C 50.2°F10.1°C 80% 14.2 mph SE22.9 kmh SE 16.0 mph25.7 kmh 29.99 in1015.6 mb 0.00 in0.0 mm 0.00 in0.0 mm 0.00 in0.0 mm
06:00 AM 56.1°F13.4°C 50.0°F10.0°C 80% 16.7 mph S26.9 kmh S 16.0 mph25.7 kmh 29.99 in1015.6 mb 0.00 in0.0 mm 0.00 in0.0 mm 0.00 in0.0 mm
05:50 AM 56.1°F13.4°C 50.4°F10.2°C 81% 15.7 mph SSE25.3 kmh SSE 15.0 mph24.1 kmh 29.99 in1015.6 mb 0.00 in0.0 mm 0.00 in0.0 mm 0.00 in0.0 mm
05:40 AM 55.9°F13.3°C 50.2°F10.1°C 81% 16.8 mph SSE27.0 kmh SSE 16.7 mph26.9 kmh 29.99 in1015.6 mb 0.00 in0.0 mm 0.00 in0.0 mm 0.00 in0.0 mm
05:30 AM 55.6°F13.1°C 50.2°F10.1°C 82% 14.8 mph S23.8 kmh S 19.2 mph30.9 kmh 29.99 in1015.6 mb 0.00 in0.0 mm 0.00 in0.0 mm 0.00 in0.0 mm
05:20 AM 55.4°F13.0°C 50.0°F10.0°C 82% 16.6 mph S26.7 kmh S 18.5 mph29.8 kmh 29.98 in1015.2 mb 0.00 in0.0 mm 0.00 in0.0 mm 0.00 in0.0 mm
05:10 AM 55.6°F13.1°C 49.8°F9.9°C 81% 15.7 mph SSE25.3 kmh SSE 16.0 mph25.7 kmh 29.98 in1015.2 mb 0.00 in0.0 mm 0.00 in0.0 mm 0.00 in0.0 mm
05:00 AM 55.6°F13.1°C 49.8°F9.9°C 81% 16.5 mph SSE26.6 kmh SSE 17.5 mph28.2 kmh 29.98 in1015.2 mb 0.00 in0.0 mm 0.00 in0.0 mm 0.00 in0.0 mm
04:50 AM 55.4°F13.0°C 50.0°F10.0°C 82% 16.8 mph SSE27.0 kmh SSE 17.5 mph28.2 kmh 29.98 in1015.2 mb 0.00 in0.0 mm 0.00 in0.0 mm 0.00 in0.0 mm
04:40 AM 55.2°F12.9°C 50.1°F10.1°C 83% 15.7 mph S25.3 kmh S 17.5 mph28.2 kmh 29.98 in1015.2 mb 0.00 in0.0 mm 0.00 in0.0 mm 0.00 in0.0 mm
04:30 AM 55.2°F12.9°C 49.8°F9.9°C 82% 12.3 mph SSE19.8 kmh SSE 12.5 mph20.1 kmh 29.98 in1015.2 mb 0.00 in0.0 mm 0.00 in0.0 mm 0.00 in0.0 mm
04:20 AM 55.2°F12.9°C 49.8°F9.9°C 82% 13.8 mph S22.2 kmh S 14.3 mph23.0 kmh 29.98 in1015.2 mb 0.00 in0.0 mm 0.00 in0.0 mm 0.00 in0.0 mm
04:10 AM 55.2°F12.9°C 50.1°F10.1°C 83% 10.0 mph S16.1 kmh S 10.8 mph17.4 kmh 29.98 in1015.2 mb 0.00 in0.0 mm 0.00 in0.0 mm 0.00 in0.0 mm
04:00 AM 55.0°F12.8°C 50.0°F10.0°C 83% 14.4 mph SSW23.2 kmh SSW 17.5 mph28.2 kmh 29.99 in1015.6 mb 0.00 in0.0 mm 0.00 in0.0 mm 0.00 in0.0 mm
03:50 AM 55.0°F12.8°C 50.0°F10.0°C 83% 13.0 mph S20.9 kmh S 15.0 mph24.1 kmh 29.98 in1015.2 mb 0.00 in0.0 mm 0.00 in0.0 mm 0.00 in0.0 mm
03:40 AM 55.0°F12.8°C 50.3°F10.2°C 84% 13.6 mph S21.9 kmh S 13.3 mph21.4 kmh 29.98 in1015.2 mb 0.00 in0.0 mm 0.00 in0.0 mm 0.00 in0.0 mm
03:30 AM 54.9°F12.7°C 50.1°F10.1°C 84% 13.8 mph S22.2 kmh S 14.3 mph23.0 kmh 29.98 in1015.2 mb 0.00 in0.0 mm 0.00 in0.0 mm 0.00 in0.0 mm
03:20 AM 54.9°F12.7°C 50.1°F10.1°C 84% 12.1 mph SSE19.5 kmh SSE 15.0 mph24.1 kmh 29.98 in1015.2 mb 0.00 in0.0 mm 0.00 in0.0 mm 0.00 in0.0 mm
03:10 AM 54.9°F12.7°C 50.1°F10.1°C 84% 14.5 mph SSE23.3 kmh SSE 13.3 mph21.4 kmh 29.98 in1015.2 mb 0.00 in0.0 mm 0.00 in0.0 mm 0.00 in0.0 mm
03:00 AM 54.9°F12.7°C 50.1°F10.1°C 84% 14.2 mph S22.9 kmh S 15.0 mph24.1 kmh 29.98 in1015.2 mb 0.00 in0.0 mm 0.00 in0.0 mm 0.00 in0.0 mm
02:50 AM 54.9°F12.7°C 50.1°F10.1°C 84% 16.2 mph S26.1 kmh S 14.3 mph23.0 kmh 29.98 in1015.2 mb 0.00 in0.0 mm 0.00 in0.0 mm 0.00 in0.0 mm
02:40 AM 54.7°F12.6°C 49.9°F9.9°C 84% 14.3 mph S23.0 kmh S 15.0 mph24.1 kmh 29.98 in1015.2 mb 0.00 in0.0 mm 0.00 in0.0 mm 0.00 in0.0 mm
02:30 AM 54.7°F12.6°C 49.9°F9.9°C 84% 15.5 mph SE24.9 kmh SE 14.3 mph23.0 kmh 29.98 in1015.2 mb 0.00 in0.0 mm 0.00 in0.0 mm 0.00 in0.0 mm
02:20 AM 54.7°F12.6°C 49.6°F9.8°C 83% 15.9 mph S25.6 kmh S 15.0 mph24.1 kmh 29.99 in1015.6 mb 0.00 in0.0 mm 0.00 in0.0 mm 0.00 in0.0 mm
02:10 AM 55.0°F12.8°C 49.6°F9.8°C 82% 10.7 mph SE17.2 kmh SE 13.3 mph21.4 kmh 29.98 in1015.2 mb 0.00 in0.0 mm 0.00 in0.0 mm 0.00 in0.0 mm
02:00 AM 55.0°F12.8°C 49.6°F9.8°C 82% 10.8 mph S17.4 kmh S 10.8 mph17.4 kmh 29.98 in1015.2 mb 0.00 in0.0 mm 0.00 in0.0 mm 0.00 in0.0 mm
01:50 AM 55.0°F12.8°C 49.0°F9.4°C 80% 9.9 mph S15.9 kmh S 15.0 mph24.1 kmh 29.98 in1015.2 mb 0.00 in0.0 mm 0.00 in0.0 mm 0.00 in0.0 mm
01:40 AM 55.2°F12.9°C 49.2°F9.6°C 80% 8.5 mph SSW13.7 kmh SSW 8.4 mph13.5 kmh 29.98 in1015.2 mb 0.00 in0.0 mm 0.00 in0.0 mm 0.00 in0.0 mm
01:30 AM 55.4°F13.0°C 49.3°F9.6°C 80% 10.1 mph S16.3 kmh S 10.1 mph16.3 kmh 29.99 in1015.6 mb 0.00 in0.0 mm 0.00 in0.0 mm 0.00 in0.0 mm
01:20 AM 55.8°F13.2°C 49.7°F9.8°C 80% 11.4 mph S18.3 kmh S 13.3 mph21.4 kmh 29.99 in1015.6 mb 0.00 in0.0 mm 0.00 in0.0 mm 0.00 in0.0 mm
01:10 AM 55.8°F13.2°C 49.7°F9.8°C 80% 12.7 mph S20.4 kmh S 13.3 mph21.4 kmh 29.99 in1015.6 mb 0.00 in0.0 mm 0.00 in0.0 mm 0.00 in0.0 mm
01:00 AM 55.8°F13.2°C 49.7°F9.8°C 80% 11.8 mph SSE19.0 kmh SSE 11.8 mph19.0 kmh 29.99 in1015.6 mb 0.00 in0.0 mm 0.00 in0.0 mm 0.00 in0.0 mm
12:50 AM 55.9°F13.3°C 49.5°F9.7°C 79% 11.9 mph SSE19.2 kmh SSE 12.5 mph20.1 kmh 29.99 in1015.6 mb 0.00 in0.0 mm 0.00 in0.0 mm 0.00 in0.0 mm
12:40 AM 56.1°F13.4°C 49.7°F9.8°C 79% 10.7 mph SW17.2 kmh SW 11.8 mph19.0 kmh 29.99 in1015.6 mb 0.00 in0.0 mm 0.00 in0.0 mm 0.00 in0.0 mm
12:30 AM 56.3°F13.5°C 49.9°F9.9°C 79% 11.5 mph SE18.5 kmh SE 10.8 mph17.4 kmh 29.99 in1015.6 mb 0.00 in0.0 mm 0.00 in0.0 mm 0.00 in0.0 mm
12:20 AM 56.5°F13.6°C 49.7°F9.8°C 78% 10.3 mph S16.6 kmh S 12.5 mph20.1 kmh 29.99 in1015.6 mb 0.00 in0.0 mm 0.00 in0.0 mm 0.00 in0.0 mm
12:10 AM 57.0°F13.9°C 49.9°F9.9°C 77% 9.3 mph S15.0 kmh S 9.1 mph14.6 kmh 30.00 in1015.9 mb 0.00 in0.0 mm 0.00 in0.0 mm 0.00 in0.0 mm
12:00 AM 57.4°F14.1°C 49.9°F9.9°C 76% 12.2 mph S19.6 kmh S 12.5 mph20.1 kmh 29.99 in1015.6 mb 0.00 in0.0 mm 0.00 in0.0 mm 0.00 in0.0 mm